sensor_id;sensor_type;location;lat;lon;timestamp;temperature;humidity
14119;DHT22;7138;49.246;9.100;2024-01-07T00:00:16;4.60;99.90
14119;DHT22;7138;49.246;9.100;2024-01-07T00:02:42;4.60;99.90
14119;DHT22;7138;49.246;9.100;2024-01-07T00:05:08;4.60;99.90
14119;DHT22;7138;49.246;9.100;2024-01-07T00:07:34;4.60;99.90
14119;DHT22;7138;49.246;9.100;2024-01-07T00:10:00;4.60;99.90
14119;DHT22;7138;49.246;9.100;2024-01-07T00:12:28;4.60;99.90
14119;DHT22;7138;49.246;9.100;2024-01-07T00:14:56;4.60;99.90
14119;DHT22;7138;49.246;9.100;2024-01-07T00:17:22;4.60;99.90
14119;DHT22;7138;49.246;9.100;2024-01-07T00:19:48;4.50;99.90
14119;DHT22;7138;49.246;9.100;2024-01-07T00:22:14;4.50;99.90
14119;DHT22;7138;49.246;9.100;2024-01-07T00:24:40;4.50;99.90
14119;DHT22;7138;49.246;9.100;2024-01-07T00:27:06;4.50;99.90
14119;DHT22;7138;49.246;9.100;2024-01-07T00:29:33;4.50;99.90
14119;DHT22;7138;49.246;9.100;2024-01-07T00:32:02;4.60;99.90
14119;DHT22;7138;49.246;9.100;2024-01-07T00:34:29;4.40;99.90
14119;DHT22;7138;49.246;9.100;2024-01-07T00:36:54;4.50;99.90
14119;DHT22;7138;49.246;9.100;2024-01-07T00:39:21;4.50;99.90
14119;DHT22;7138;49.246;9.100;2024-01-07T00:41:47;4.50;99.90
14119;DHT22;7138;49.246;9.100;2024-01-07T00:44:12;4.50;99.90
14119;DHT22;7138;49.246;9.100;2024-01-07T00:46:38;4.50;99.90
14119;DHT22;7138;49.246;9.100;2024-01-07T00:49:05;4.50;99.90
14119;DHT22;7138;49.246;9.100;2024-01-07T00:51:31;4.50;99.90
14119;DHT22;7138;49.246;9.100;2024-01-07T00:53:57;4.40;99.90
14119;DHT22;7138;49.246;9.100;2024-01-07T00:56:25;4.50;99.90
14119;DHT22;7138;49.246;9.100;2024-01-07T00:58:51;4.40;99.90
14119;DHT22;7138;49.246;9.100;2024-01-07T01:01:17;4.40;99.90
14119;DHT22;7138;49.246;9.100;2024-01-07T01:03:43;4.40;99.90
14119;DHT22;7138;49.246;9.100;2024-01-07T01:06:10;4.40;99.90
14119;DHT22;7138;49.246;9.100;2024-01-07T01:08:37;4.50;99.90
14119;DHT22;7138;49.246;9.100;2024-01-07T01:11:03;4.40;99.90
14119;DHT22;7138;49.246;9.100;2024-01-07T01:13:29;4.50;99.90
14119;DHT22;7138;49.246;9.100;2024-01-07T01:15:54;4.50;99.90
14119;DHT22;7138;49.246;9.100;2024-01-07T01:18:20;4.50;99.90
14119;DHT22;7138;49.246;9.100;2024-01-07T01:20:46;4.50;99.90
14119;DHT22;7138;49.246;9.100;2024-01-07T01:23:13;4.40;99.90
14119;DHT22;7138;49.246;9.100;2024-01-07T01:25:39;4.40;99.90
14119;DHT22;7138;49.246;9.100;2024-01-07T01:28:05;4.50;99.90
14119;DHT22;7138;49.246;9.100;2024-01-07T01:30:31;4.40;99.90
14119;DHT22;7138;49.246;9.100;2024-01-07T01:32:57;4.50;99.90
14119;DHT22;7138;49.246;9.100;2024-01-07T01:35:23;4.40;99.90
14119;DHT22;7138;49.246;9.100;2024-01-07T01:37:48;4.40;99.90
14119;DHT22;7138;49.246;9.100;2024-01-07T01:40:16;4.40;99.90
14119;DHT22;7138;49.246;9.100;2024-01-07T01:42:43;4.40;99.90
14119;DHT22;7138;49.246;9.100;2024-01-07T01:45:09;4.40;99.90
14119;DHT22;7138;49.246;9.100;2024-01-07T01:47:35;4.40;99.90
14119;DHT22;7138;49.246;9.100;2024-01-07T01:50:01;4.40;99.90
14119;DHT22;7138;49.246;9.100;2024-01-07T01:52:27;4.40;99.90
14119;DHT22;7138;49.246;9.100;2024-01-07T01:54:54;4.40;99.90
14119;DHT22;7138;49.246;9.100;2024-01-07T01:57:22;4.40;99.90
14119;DHT22;7138;49.246;9.100;2024-01-07T01:59:55;4.40;99.90
14119;DHT22;7138;49.246;9.100;2024-01-07T02:02:21;4.30;99.90
14119;DHT22;7138;49.246;9.100;2024-01-07T02:04:47;4.40;99.90
14119;DHT22;7138;49.246;9.100;2024-01-07T02:07:13;4.30;99.90
14119;DHT22;7138;49.246;9.100;2024-01-07T02:09:39;4.30;99.90
14119;DHT22;7138;49.246;9.100;2024-01-07T02:12:06;4.30;99.90
14119;DHT22;7138;49.246;9.100;2024-01-07T02:14:38;4.30;99.90
14119;DHT22;7138;49.246;9.100;2024-01-07T02:17:04;4.30;99.90
14119;DHT22;7138;49.246;9.100;2024-01-07T02:19:30;4.30;99.90
14119;DHT22;7138;49.246;9.100;2024-01-07T02:21:56;4.30;99.90
14119;DHT22;7138;49.246;9.100;2024-01-07T02:24:24;4.30;99.90
14119;DHT22;7138;49.246;9.100;2024-01-07T02:26:50;4.30;99.90
14119;DHT22;7138;49.246;9.100;2024-01-07T02:29:15;4.30;99.90
14119;DHT22;7138;49.246;9.100;2024-01-07T02:31:41;4.30;99.90
14119;DHT22;7138;49.246;9.100;2024-01-07T02:34:09;4.30;99.90
14119;DHT22;7138;49.246;9.100;2024-01-07T02:36:34;4.20;99.90
14119;DHT22;7138;49.246;9.100;2024-01-07T02:39:00;4.20;99.90
14119;DHT22;7138;49.246;9.100;2024-01-07T02:41:27;4.30;99.90
14119;DHT22;7138;49.246;9.100;2024-01-07T02:43:53;4.20;99.90
14119;DHT22;7138;49.246;9.100;2024-01-07T02:46:19;4.20;99.90
14119;DHT22;7138;49.246;9.100;2024-01-07T02:48:45;4.30;99.90
14119;DHT22;7138;49.246;9.100;2024-01-07T02:51:11;4.20;99.90
14119;DHT22;7138;49.246;9.100;2024-01-07T02:53:37;4.20;99.90
14119;DHT22;7138;49.246;9.100;2024-01-07T02:56:03;4.20;99.90
14119;DHT22;7138;49.246;9.100;2024-01-07T02:58:31;4.20;99.90
14119;DHT22;7138;49.246;9.100;2024-01-07T03:00:57;4.20;99.90
14119;DHT22;7138;49.246;9.100;2024-01-07T03:03:23;4.10;99.90
14119;DHT22;7138;49.246;9.100;2024-01-07T03:05:48;4.10;99.90
14119;DHT22;7138;49.246;9.100;2024-01-07T03:08:14;4.10;99.90
14119;DHT22;7138;49.246;9.100;2024-01-07T03:10:40;4.10;99.90
14119;DHT22;7138;49.246;9.100;2024-01-07T03:13:06;4.10;99.90
14119;DHT22;7138;49.246;9.100;2024-01-07T03:15:33;4.10;99.90
14119;DHT22;7138;49.246;9.100;2024-01-07T03:17:59;4.10;99.90
14119;DHT22;7138;49.246;9.100;2024-01-07T03:20:25;4.10;99.90
14119;DHT22;7138;49.246;9.100;2024-01-07T03:22:51;4.10;99.90
14119;DHT22;7138;49.246;9.100;2024-01-07T03:25:17;4.10;99.90
14119;DHT22;7138;49.246;9.100;2024-01-07T03:27:42;4.10;99.90
14119;DHT22;7138;49.246;9.100;2024-01-07T03:30:09;4.10;99.90
14119;DHT22;7138;49.246;9.100;2024-01-07T03:32:37;4.10;99.90
14119;DHT22;7138;49.246;9.100;2024-01-07T03:35:03;4.10;99.90
14119;DHT22;7138;49.246;9.100;2024-01-07T03:37:30;4.00;99.90
14119;DHT22;7138;49.246;9.100;2024-01-07T03:39:55;4.00;99.90
14119;DHT22;7138;49.246;9.100;2024-01-07T03:42:21;4.00;99.90
14119;DHT22;7138;49.246;9.100;2024-01-07T03:44:47;3.90;99.90
14119;DHT22;7138;49.246;9.100;2024-01-07T03:47:13;3.90;99.90
14119;DHT22;7138;49.246;9.100;2024-01-07T03:49:40;3.90;99.90
14119;DHT22;7138;49.246;9.100;2024-01-07T03:52:07;3.80;99.90
14119;DHT22;7138;49.246;9.100;2024-01-07T03:54:33;3.80;99.90
14119;DHT22;7138;49.246;9.100;2024-01-07T03:56:59;3.80;99.90
14119;DHT22;7138;49.246;9.100;2024-01-07T03:59:25;3.80;99.90
14119;DHT22;7138;49.246;9.100;2024-01-07T04:01:53;3.80;99.90
14119;DHT22;7138;49.246;9.100;2024-01-07T04:04:19;3.80;99.90
14119;DHT22;7138;49.246;9.100;2024-01-07T04:06:47;3.70;99.90
14119;DHT22;7138;49.246;9.100;2024-01-07T04:09:12;3.50;99.90
14119;DHT22;7138;49.246;9.100;2024-01-07T04:11:39;3.70;99.90
14119;DHT22;7138;49.246;9.100;2024-01-07T04:14:06;3.70;99.90
14119;DHT22;7138;49.246;9.100;2024-01-07T04:16:32;3.70;99.90
14119;DHT22;7138;49.246;9.100;2024-01-07T04:18:57;3.70;99.90
14119;DHT22;7138;49.246;9.100;2024-01-07T04:21:23;3.70;99.90
14119;DHT22;7138;49.246;9.100;2024-01-07T04:23:50;3.70;99.90
14119;DHT22;7138;49.246;9.100;2024-01-07T04:26:16;3.70;99.90
14119;DHT22;7138;49.246;9.100;2024-01-07T04:28:43;3.70;99.90
14119;DHT22;7138;49.246;9.100;2024-01-07T04:31:09;3.70;99.90
14119;DHT22;7138;49.246;9.100;2024-01-07T04:33:35;3.80;99.90
14119;DHT22;7138;49.246;9.100;2024-01-07T04:36:01;3.80;99.90
14119;DHT22;7138;49.246;9.100;2024-01-07T04:38:27;3.80;99.90
14119;DHT22;7138;49.246;9.100;2024-01-07T04:40:54;3.80;99.90
14119;DHT22;7138;49.246;9.100;2024-01-07T04:43:20;3.80;99.90
14119;DHT22;7138;49.246;9.100;2024-01-07T04:45:46;3.80;99.90
14119;DHT22;7138;49.246;9.100;2024-01-07T04:48:12;3.80;99.90
14119;DHT22;7138;49.246;9.100;2024-01-07T04:50:39;3.80;99.90
14119;DHT22;7138;49.246;9.100;2024-01-07T04:53:05;3.80;99.90
14119;DHT22;7138;49.246;9.100;2024-01-07T04:55:31;3.90;99.90
14119;DHT22;7138;49.246;9.100;2024-01-07T04:57:58;3.90;99.90
14119;DHT22;7138;49.246;9.100;2024-01-07T05:00:25;3.90;99.90
14119;DHT22;7138;49.246;9.100;2024-01-07T05:02:51;3.90;99.90
14119;DHT22;7138;49.246;9.100;2024-01-07T05:05:16;3.90;99.90
14119;DHT22;7138;49.246;9.100;2024-01-07T05:07:42;3.90;99.90
14119;DHT22;7138;49.246;9.100;2024-01-07T05:10:08;3.90;99.90
14119;DHT22;7138;49.246;9.100;2024-01-07T05:12:34;3.90;99.90
14119;DHT22;7138;49.246;9.100;2024-01-07T05:15:02;3.90;99.90
14119;DHT22;7138;49.246;9.100;2024-01-07T05:17:29;3.90;99.90
14119;DHT22;7138;49.246;9.100;2024-01-07T05:19:55;3.90;99.90
14119;DHT22;7138;49.246;9.100;2024-01-07T05:22:21;3.90;99.90
14119;DHT22;7138;49.246;9.100;2024-01-07T05:24:47;3.90;99.90
14119;DHT22;7138;49.246;9.100;2024-01-07T05:27:13;4.00;99.90
14119;DHT22;7138;49.246;9.100;2024-01-07T05:29:39;4.00;99.90
14119;DHT22;7138;49.246;9.100;2024-01-07T05:32:06;4.00;99.90
14119;DHT22;7138;49.246;9.100;2024-01-07T05:34:32;4.20;99.90
14119;DHT22;7138;49.246;9.100;2024-01-07T05:36:58;4.00;99.90
14119;DHT22;7138;49.246;9.100;2024-01-07T05:39:24;4.00;99.90
14119;DHT22;7138;49.246;9.100;2024-01-07T05:41:50;4.00;99.90
14119;DHT22;7138;49.246;9.100;2024-01-07T05:44:15;4.00;99.90
14119;DHT22;7138;49.246;9.100;2024-01-07T05:46:41;4.00;99.90
14119;DHT22;7138;49.246;9.100;2024-01-07T05:49:08;4.00;99.90
14119;DHT22;7138;49.246;9.100;2024-01-07T05:51:38;4.10;99.90
14119;DHT22;7138;49.246;9.100;2024-01-07T05:54:04;4.00;99.90
14119;DHT22;7138;49.246;9.100;2024-01-07T05:56:30;4.00;99.90
14119;DHT22;7138;49.246;9.100;2024-01-07T05:58:56;4.10;99.90
14119;DHT22;7138;49.246;9.100;2024-01-07T06:01:22;4.10;99.90
14119;DHT22;7138;49.246;9.100;2024-01-07T06:03:48;4.10;99.90
14119;DHT22;7138;49.246;9.100;2024-01-07T06:06:15;4.10;99.90
14119;DHT22;7138;49.246;9.100;2024-01-07T06:08:42;4.20;99.90
14119;DHT22;7138;49.246;9.100;2024-01-07T06:11:08;4.10;99.90
14119;DHT22;7138;49.246;9.100;2024-01-07T06:13:34;4.10;99.90
14119;DHT22;7138;49.246;9.100;2024-01-07T06:15:59;4.10;99.90
14119;DHT22;7138;49.246;9.100;2024-01-07T06:18:25;4.10;99.90
14119;DHT22;7138;49.246;9.100;2024-01-07T06:20:51;4.10;99.90
14119;DHT22;7138;49.246;9.100;2024-01-07T06:23:18;4.20;99.90
14119;DHT22;7138;49.246;9.100;2024-01-07T06:25:44;4.20;99.90
14119;DHT22;7138;49.246;9.100;2024-01-07T06:28:10;4.20;99.90
14119;DHT22;7138;49.246;9.100;2024-01-07T06:30:36;4.20;99.90
14119;DHT22;7138;49.246;9.100;2024-01-07T06:33:02;4.10;99.90
14119;DHT22;7138;49.246;9.100;2024-01-07T06:35:28;4.20;99.90
14119;DHT22;7138;49.246;9.100;2024-01-07T06:37:54;4.10;99.90
14119;DHT22;7138;49.246;9.100;2024-01-07T06:40:21;4.10;99.90
14119;DHT22;7138;49.246;9.100;2024-01-07T06:42:48;4.10;99.90
14119;DHT22;7138;49.246;9.100;2024-01-07T06:45:14;4.10;99.90
14119;DHT22;7138;49.246;9.100;2024-01-07T06:47:40;4.10;99.90
14119;DHT22;7138;49.246;9.100;2024-01-07T06:50:07;4.10;99.90
14119;DHT22;7138;49.246;9.100;2024-01-07T06:52:33;4.20;99.90
14119;DHT22;7138;49.246;9.100;2024-01-07T06:54:59;4.00;99.90
14119;DHT22;7138;49.246;9.100;2024-01-07T06:57:26;4.00;99.90
14119;DHT22;7138;49.246;9.100;2024-01-07T06:59:52;4.00;99.90
14119;DHT22;7138;49.246;9.100;2024-01-07T07:02:19;4.00;99.90
14119;DHT22;7138;49.246;9.100;2024-01-07T07:04:45;4.00;99.90
14119;DHT22;7138;49.246;9.100;2024-01-07T07:07:11;3.90;99.90
14119;DHT22;7138;49.246;9.100;2024-01-07T07:09:37;4.00;99.90
14119;DHT22;7138;49.246;9.100;2024-01-07T07:12:03;4.00;99.90
14119;DHT22;7138;49.246;9.100;2024-01-07T07:14:31;4.00;99.90
14119;DHT22;7138;49.246;9.100;2024-01-07T07:16:57;3.90;99.90
14119;DHT22;7138;49.246;9.100;2024-01-07T07:19:23;3.90;99.90
14119;DHT22;7138;49.246;9.100;2024-01-07T07:21:49;3.90;99.90
14119;DHT22;7138;49.246;9.100;2024-01-07T07:24:14;3.90;99.90
14119;DHT22;7138;49.246;9.100;2024-01-07T07:26:40;3.80;99.90
14119;DHT22;7138;49.246;9.100;2024-01-07T07:29:06;3.90;99.90
14119;DHT22;7138;49.246;9.100;2024-01-07T07:31:33;3.90;99.90
14119;DHT22;7138;49.246;9.100;2024-01-07T07:33:59;3.90;99.90
14119;DHT22;7138;49.246;9.100;2024-01-07T07:36:26;3.90;99.90
14119;DHT22;7138;49.246;9.100;2024-01-07T07:38:52;3.90;99.90
14119;DHT22;7138;49.246;9.100;2024-01-07T07:41:18;3.90;99.90
14119;DHT22;7138;49.246;9.100;2024-01-07T07:43:44;3.90;99.90
14119;DHT22;7138;49.246;9.100;2024-01-07T07:46:10;3.90;99.90
14119;DHT22;7138;49.246;9.100;2024-01-07T07:48:38;3.90;99.90
14119;DHT22;7138;49.246;9.100;2024-01-07T07:51:04;3.90;99.90
14119;DHT22;7138;49.246;9.100;2024-01-07T07:53:30;3.80;99.90
14119;DHT22;7138;49.246;9.100;2024-01-07T07:55:56;3.90;99.90
14119;DHT22;7138;49.246;9.100;2024-01-07T07:58:22;3.90;99.90
14119;DHT22;7138;49.246;9.100;2024-01-07T08:00:48;3.90;99.90
14119;DHT22;7138;49.246;9.100;2024-01-07T08:03:14;3.90;99.90
14119;DHT22;7138;49.246;9.100;2024-01-07T08:05:42;3.80;99.90
14119;DHT22;7138;49.246;9.100;2024-01-07T08:08:08;3.80;99.90
14119;DHT22;7138;49.246;9.100;2024-01-07T08:10:33;3.80;99.90
14119;DHT22;7138;49.246;9.100;2024-01-07T08:13:00;3.80;99.90
14119;DHT22;7138;49.246;9.100;2024-01-07T08:15:26;3.70;99.90
14119;DHT22;7138;49.246;9.100;2024-01-07T08:17:52;3.70;99.90
14119;DHT22;7138;49.246;9.100;2024-01-07T08:20:18;3.70;99.90
14119;DHT22;7138;49.246;9.100;2024-01-07T08:22:46;3.70;99.90
14119;DHT22;7138;49.246;9.100;2024-01-07T08:25:12;3.70;99.90
14119;DHT22;7138;49.246;9.100;2024-01-07T08:27:40;3.70;99.90
14119;DHT22;7138;49.246;9.100;2024-01-07T08:30:08;3.70;99.90
14119;DHT22;7138;49.246;9.100;2024-01-07T08:32:34;3.70;99.90
14119;DHT22;7138;49.246;9.100;2024-01-07T08:35:00;3.70;99.90
14119;DHT22;7138;49.246;9.100;2024-01-07T08:37:26;3.70;99.90
14119;DHT22;7138;49.246;9.100;2024-01-07T08:39:53;3.70;99.90
14119;DHT22;7138;49.246;9.100;2024-01-07T08:42:19;3.70;99.90
14119;DHT22;7138;49.246;9.100;2024-01-07T08:44:45;3.60;99.90
14119;DHT22;7138;49.246;9.100;2024-01-07T08:47:12;3.60;99.90
14119;DHT22;7138;49.246;9.100;2024-01-07T08:49:38;3.60;99.90
14119;DHT22;7138;49.246;9.100;2024-01-07T08:52:05;3.60;99.90
14119;DHT22;7138;49.246;9.100;2024-01-07T08:54:31;3.60;99.90
14119;DHT22;7138;49.246;9.100;2024-01-07T08:56:58;3.60;99.90
14119;DHT22;7138;49.246;9.100;2024-01-07T08:59:24;3.50;99.90
14119;DHT22;7138;49.246;9.100;2024-01-07T09:01:50;3.50;99.90
14119;DHT22;7138;49.246;9.100;2024-01-07T09:04:16;3.40;99.90
14119;DHT22;7138;49.246;9.100;2024-01-07T09:06:44;3.40;99.90
14119;DHT22;7138;49.246;9.100;2024-01-07T09:09:10;3.30;99.90
14119;DHT22;7138;49.246;9.100;2024-01-07T09:11:36;3.40;99.90
14119;DHT22;7138;49.246;9.100;2024-01-07T09:14:03;3.30;99.90
14119;DHT22;7138;49.246;9.100;2024-01-07T09:16:29;3.30;99.90
14119;DHT22;7138;49.246;9.100;2024-01-07T09:18:55;3.30;99.90
14119;DHT22;7138;49.246;9.100;2024-01-07T09:21:21;3.20;99.90
14119;DHT22;7138;49.246;9.100;2024-01-07T09:23:48;3.20;99.90
14119;DHT22;7138;49.246;9.100;2024-01-07T09:26:15;3.30;99.90
14119;DHT22;7138;49.246;9.100;2024-01-07T09:28:40;3.20;99.90
14119;DHT22;7138;49.246;9.100;2024-01-07T09:31:09;3.20;99.90
14119;DHT22;7138;49.246;9.100;2024-01-07T09:33:35;3.20;99.90
14119;DHT22;7138;49.246;9.100;2024-01-07T09:36:01;3.20;99.90
14119;DHT22;7138;49.246;9.100;2024-01-07T09:38:27;3.20;99.90
14119;DHT22;7138;49.246;9.100;2024-01-07T09:40:52;3.20;99.90
14119;DHT22;7138;49.246;9.100;2024-01-07T09:43:21;3.20;99.90
14119;DHT22;7138;49.246;9.100;2024-01-07T09:45:47;3.20;99.90
14119;DHT22;7138;49.246;9.100;2024-01-07T09:48:18;3.20;99.90
14119;DHT22;7138;49.246;9.100;2024-01-07T09:50:44;3.20;99.90
14119;DHT22;7138;49.246;9.100;2024-01-07T09:53:15;3.00;99.90
14119;DHT22;7138;49.246;9.100;2024-01-07T09:55:52;3.10;99.90
14119;DHT22;7138;49.246;9.100;2024-01-07T09:58:25;3.10;99.90
14119;DHT22;7138;49.246;9.100;2024-01-07T10:00:51;3.10;99.90
14119;DHT22;7138;49.246;9.100;2024-01-07T10:03:18;3.20;99.90
14119;DHT22;7138;49.246;9.100;2024-01-07T10:05:44;3.40;99.90
14119;DHT22;7138;49.246;9.100;2024-01-07T10:08:10;3.50;99.90
14119;DHT22;7138;49.246;9.100;2024-01-07T10:10:36;3.60;99.90
14119;DHT22;7138;49.246;9.100;2024-01-07T10:13:02;3.60;99.90
14119;DHT22;7138;49.246;9.100;2024-01-07T10:15:28;3.70;99.90
14119;DHT22;7138;49.246;9.100;2024-01-07T10:17:55;3.60;99.90
14119;DHT22;7138;49.246;9.100;2024-01-07T10:20:23;3.50;99.90
14119;DHT22;7138;49.246;9.100;2024-01-07T10:22:50;3.50;99.90
14119;DHT22;7138;49.246;9.100;2024-01-07T10:25:16;3.50;99.90
14119;DHT22;7138;49.246;9.100;2024-01-07T10:27:42;3.50;99.90
14119;DHT22;7138;49.246;9.100;2024-01-07T10:30:09;3.30;99.90
14119;DHT22;7138;49.246;9.100;2024-01-07T10:32:37;3.40;99.90
14119;DHT22;7138;49.246;9.100;2024-01-07T10:35:04;3.50;99.90
14119;DHT22;7138;49.246;9.100;2024-01-07T10:37:32;3.50;99.90
14119;DHT22;7138;49.246;9.100;2024-01-07T10:39:59;3.60;99.90
14119;DHT22;7138;49.246;9.100;2024-01-07T10:42:30;3.50;99.90
14119;DHT22;7138;49.246;9.100;2024-01-07T10:44:57;3.50;99.90
14119;DHT22;7138;49.246;9.100;2024-01-07T10:47:23;3.40;99.90
14119;DHT22;7138;49.246;9.100;2024-01-07T10:49:54;3.30;99.90
14119;DHT22;7138;49.246;9.100;2024-01-07T10:52:22;3.30;99.90
14119;DHT22;7138;49.246;9.100;2024-01-07T10:54:50;3.20;99.90
14119;DHT22;7138;49.246;9.100;2024-01-07T10:57:23;3.20;99.90
14119;DHT22;7138;49.246;9.100;2024-01-07T10:59:59;3.10;99.90
14119;DHT22;7138;49.246;9.100;2024-01-07T11:02:26;3.10;99.90
14119;DHT22;7138;49.246;9.100;2024-01-07T11:05:05;3.10;99.90
14119;DHT22;7138;49.246;9.100;2024-01-07T11:07:41;3.10;99.90
14119;DHT22;7138;49.246;9.100;2024-01-07T11:10:17;3.10;99.90
14119;DHT22;7138;49.246;9.100;2024-01-07T11:12:53;3.10;99.90
14119;DHT22;7138;49.246;9.100;2024-01-07T11:15:52;3.00;99.90
14119;DHT22;7138;49.246;9.100;2024-01-07T11:18:19;3.00;99.90
14119;DHT22;7138;49.246;9.100;2024-01-07T11:20:46;3.00;99.90
14119;DHT22;7138;49.246;9.100;2024-01-07T11:23:29;2.90;99.90
14119;DHT22;7138;49.246;9.100;2024-01-07T11:25:58;2.90;99.90
14119;DHT22;7138;49.246;9.100;2024-01-07T11:28:44;2.80;99.90
14119;DHT22;7138;49.246;9.100;2024-01-07T11:31:13;2.80;99.90
14119;DHT22;7138;49.246;9.100;2024-01-07T11:33:42;2.90;99.90
14119;DHT22;7138;49.246;9.100;2024-01-07T11:36:11;2.90;99.90
14119;DHT22;7138;49.246;9.100;2024-01-07T11:38:40;2.90;99.90
14119;DHT22;7138;49.246;9.100;2024-01-07T11:41:09;2.90;99.90
14119;DHT22;7138;49.246;9.100;2024-01-07T11:43:37;2.90;99.90
14119;DHT22;7138;49.246;9.100;2024-01-07T11:46:03;2.80;99.90
14119;DHT22;7138;49.246;9.100;2024-01-07T11:48:29;2.80;99.90
14119;DHT22;7138;49.246;9.100;2024-01-07T11:50:55;2.90;99.90
14119;DHT22;7138;49.246;9.100;2024-01-07T11:53:21;2.70;99.90
14119;DHT22;7138;49.246;9.100;2024-01-07T11:55:47;2.60;99.90
14119;DHT22;7138;49.246;9.100;2024-01-07T11:58:14;2.60;99.90
14119;DHT22;7138;49.246;9.100;2024-01-07T12:00:40;2.70;99.90
14119;DHT22;7138;49.246;9.100;2024-01-07T12:03:06;2.60;99.90
14119;DHT22;7138;49.246;9.100;2024-01-07T12:05:32;2.60;99.90
14119;DHT22;7138;49.246;9.100;2024-01-07T12:07:58;2.50;99.90
14119;DHT22;7138;49.246;9.100;2024-01-07T12:10:26;2.40;99.90
14119;DHT22;7138;49.246;9.100;2024-01-07T12:12:52;2.40;99.90
14119;DHT22;7138;49.246;9.100;2024-01-07T12:15:20;2.30;99.90
14119;DHT22;7138;49.246;9.100;2024-01-07T12:17:57;2.40;99.90
14119;DHT22;7138;49.246;9.100;2024-01-07T12:20:24;2.40;99.90
14119;DHT22;7138;49.246;9.100;2024-01-07T12:22:51;2.40;99.90
14119;DHT22;7138;49.246;9.100;2024-01-07T12:25:21;2.30;99.90
14119;DHT22;7138;49.246;9.100;2024-01-07T12:27:50;2.30;99.90
14119;DHT22;7138;49.246;9.100;2024-01-07T12:30:20;2.20;99.90
14119;DHT22;7138;49.246;9.100;2024-01-07T12:32:46;2.20;99.90
14119;DHT22;7138;49.246;9.100;2024-01-07T12:35:12;2.20;99.90
14119;DHT22;7138;49.246;9.100;2024-01-07T12:37:38;2.20;99.90
14119;DHT22;7138;49.246;9.100;2024-01-07T12:40:05;2.10;99.90
14119;DHT22;7138;49.246;9.100;2024-01-07T12:42:34;2.20;99.90
14119;DHT22;7138;49.246;9.100;2024-01-07T12:45:00;2.10;99.90
14119;DHT22;7138;49.246;9.100;2024-01-07T12:47:27;2.10;99.90
14119;DHT22;7138;49.246;9.100;2024-01-07T12:49:53;2.00;99.90
14119;DHT22;7138;49.246;9.100;2024-01-07T12:52:19;2.00;99.90
14119;DHT22;7138;49.246;9.100;2024-01-07T12:54:44;1.90;99.90
14119;DHT22;7138;49.246;9.100;2024-01-07T12:57:12;2.00;99.90
14119;DHT22;7138;49.246;9.100;2024-01-07T12:59:38;1.90;99.90
14119;DHT22;7138;49.246;9.100;2024-01-07T13:02:04;1.90;99.90
14119;DHT22;7138;49.246;9.100;2024-01-07T13:04:31;1.90;99.90
14119;DHT22;7138;49.246;9.100;2024-01-07T13:06:57;1.90;99.90
14119;DHT22;7138;49.246;9.100;2024-01-07T13:09:22;1.90;99.90
14119;DHT22;7138;49.246;9.100;2024-01-07T13:11:49;1.80;99.90
14119;DHT22;7138;49.246;9.100;2024-01-07T13:14:15;1.80;99.90
14119;DHT22;7138;49.246;9.100;2024-01-07T13:16:40;1.80;99.90
14119;DHT22;7138;49.246;9.100;2024-01-07T13:19:06;1.90;99.90
14119;DHT22;7138;49.246;9.100;2024-01-07T13:21:36;1.80;99.90
14119;DHT22;7138;49.246;9.100;2024-01-07T13:24:04;1.90;99.90
14119;DHT22;7138;49.246;9.100;2024-01-07T13:26:30;1.90;99.90
14119;DHT22;7138;49.246;9.100;2024-01-07T13:28:56;1.80;99.90
14119;DHT22;7138;49.246;9.100;2024-01-07T13:31:21;1.80;99.90
14119;DHT22;7138;49.246;9.100;2024-01-07T13:33:49;1.70;99.90
14119;DHT22;7138;49.246;9.100;2024-01-07T13:36:14;1.60;99.90
14119;DHT22;7138;49.246;9.100;2024-01-07T13:38:42;1.70;99.90
14119;DHT22;7138;49.246;9.100;2024-01-07T13:41:08;1.60;99.90
14119;DHT22;7138;49.246;9.100;2024-01-07T13:43:34;1.60;99.90
14119;DHT22;7138;49.246;9.100;2024-01-07T13:46:00;1.60;99.90
14119;DHT22;7138;49.246;9.100;2024-01-07T13:48:27;1.60;99.90
14119;DHT22;7138;49.246;9.100;2024-01-07T13:50:53;1.60;99.90
14119;DHT22;7138;49.246;9.100;2024-01-07T13:53:19;1.50;99.90
14119;DHT22;7138;49.246;9.100;2024-01-07T13:55:46;1.50;99.90
14119;DHT22;7138;49.246;9.100;2024-01-07T13:58:12;1.50;99.90
14119;DHT22;7138;49.246;9.100;2024-01-07T14:00:38;1.40;99.90
14119;DHT22;7138;49.246;9.100;2024-01-07T14:03:04;1.40;99.90
14119;DHT22;7138;49.246;9.100;2024-01-07T14:05:30;1.30;99.90
14119;DHT22;7138;49.246;9.100;2024-01-07T14:07:55;1.40;99.90
14119;DHT22;7138;49.246;9.100;2024-01-07T14:10:21;1.30;99.90
14119;DHT22;7138;49.246;9.100;2024-01-07T14:12:48;1.30;99.90
14119;DHT22;7138;49.246;9.100;2024-01-07T14:15:14;1.30;99.90
14119;DHT22;7138;49.246;9.100;2024-01-07T14:17:42;1.30;99.90
14119;DHT22;7138;49.246;9.100;2024-01-07T14:20:09;1.20;99.90
14119;DHT22;7138;49.246;9.100;2024-01-07T14:22:35;1.20;99.90
14119;DHT22;7138;49.246;9.100;2024-01-07T14:25:02;1.20;99.90
14119;DHT22;7138;49.246;9.100;2024-01-07T14:27:29;1.20;99.90
14119;DHT22;7138;49.246;9.100;2024-01-07T14:29:56;1.10;99.90
14119;DHT22;7138;49.246;9.100;2024-01-07T14:32:22;1.10;99.90
14119;DHT22;7138;49.246;9.100;2024-01-07T14:34:49;1.10;99.90
14119;DHT22;7138;49.246;9.100;2024-01-07T14:37:15;1.10;99.90
14119;DHT22;7138;49.246;9.100;2024-01-07T14:39:41;1.00;99.90
14119;DHT22;7138;49.246;9.100;2024-01-07T14:42:07;1.00;99.90
14119;DHT22;7138;49.246;9.100;2024-01-07T14:44:33;1.00;99.90
14119;DHT22;7138;49.246;9.100;2024-01-07T14:47:00;1.00;99.90
14119;DHT22;7138;49.246;9.100;2024-01-07T14:49:26;1.00;99.90
14119;DHT22;7138;49.246;9.100;2024-01-07T14:51:52;0.90;99.90
14119;DHT22;7138;49.246;9.100;2024-01-07T14:54:17;0.90;99.90
14119;DHT22;7138;49.246;9.100;2024-01-07T14:56:43;0.90;99.90
14119;DHT22;7138;49.246;9.100;2024-01-07T14:59:09;0.90;99.90
14119;DHT22;7138;49.246;9.100;2024-01-07T15:01:35;0.90;99.90
14119;DHT22;7138;49.246;9.100;2024-01-07T15:04:02;0.90;99.90
14119;DHT22;7138;49.246;9.100;2024-01-07T15:06:29;0.90;99.90
14119;DHT22;7138;49.246;9.100;2024-01-07T15:08:55;0.80;99.90
14119;DHT22;7138;49.246;9.100;2024-01-07T15:11:21;0.80;99.90
14119;DHT22;7138;49.246;9.100;2024-01-07T15:13:47;0.80;99.90
14119;DHT22;7138;49.246;9.100;2024-01-07T15:16:13;0.80;99.90
14119;DHT22;7138;49.246;9.100;2024-01-07T15:18:39;0.80;99.90
14119;DHT22;7138;49.246;9.100;2024-01-07T15:21:06;0.80;99.90
14119;DHT22;7138;49.246;9.100;2024-01-07T15:23:32;0.80;99.90
14119;DHT22;7138;49.246;9.100;2024-01-07T15:25:57;0.80;99.90
14119;DHT22;7138;49.246;9.100;2024-01-07T15:28:23;0.80;99.90
14119;DHT22;7138;49.246;9.100;2024-01-07T15:30:49;0.70;99.90
14119;DHT22;7138;49.246;9.100;2024-01-07T15:33:15;0.70;99.90
14119;DHT22;7138;49.246;9.100;2024-01-07T15:35:41;0.70;99.90
14119;DHT22;7138;49.246;9.100;2024-01-07T15:38:08;0.60;99.90
14119;DHT22;7138;49.246;9.100;2024-01-07T15:40:34;0.60;99.90
14119;DHT22;7138;49.246;9.100;2024-01-07T15:43:00;0.70;99.90
14119;DHT22;7138;49.246;9.100;2024-01-07T15:45:26;0.60;99.90
14119;DHT22;7138;49.246;9.100;2024-01-07T15:47:52;0.60;99.90
14119;DHT22;7138;49.246;9.100;2024-01-07T15:50:18;0.50;99.90
14119;DHT22;7138;49.246;9.100;2024-01-07T15:52:43;0.50;99.90
14119;DHT22;7138;49.246;9.100;2024-01-07T15:55:13;0.50;99.90
14119;DHT22;7138;49.246;9.100;2024-01-07T15:57:40;0.40;99.90